Chenoa, Kentucky
Current Conditions -  °F | °C
As of 7:55 AM on Monday 29 Dec 2014 (Local Time) from K1A6 Reporting Station
Overcast Overcast  
Wind Chill: 37°   Ceiling: 800
Heat Index: 40°   Visibility: 10mi
Dew Point: 40°   Wind: 5mph
Humidity: 97%   Direction: 20°NNE
Pressure: 30.11"   Gusts: NA
Location:  36.7417°N, 83.6911°W
Report Text: K1A6 291255Z AUTO 02004KT 10SM OVC008 05/04 A3011 RMK AO2 T00460042
Loading
Personal Weather Stations






























Interactive Weather Map New forecast layout! Learn more

10-Day Weather Forecast

Advertisements
Track Severe Weather on mobile